createdAt,value
2023-03-22T08:42:03.494Z,1003.82
2023-03-22T08:43:03.479Z,1003.72
2023-03-22T08:44:03.478Z,1003.72
2023-03-22T08:45:03.495Z,1003.70
2023-03-22T08:46:03.549Z,1003.75
2023-03-22T08:47:03.518Z,1003.71
2023-03-22T08:48:03.696Z,1003.73
2023-03-22T08:49:03.535Z,1003.65
2023-03-22T08:50:03.550Z,1003.65
2023-03-22T08:51:03.551Z,1003.62
2023-03-22T08:52:03.560Z,1003.59
2023-03-22T08:53:03.581Z,1003.65
2023-03-22T08:54:03.578Z,1003.67
2023-03-22T08:55:03.593Z,1003.66
2023-03-22T08:56:03.599Z,1003.61
2023-03-22T08:57:03.596Z,1003.60
2023-03-22T08:58:03.630Z,1003.54
2023-03-22T08:59:03.626Z,1003.44
2023-03-22T09:00:03.639Z,1003.46
2023-03-22T09:01:03.888Z,1003.37
2023-03-22T09:02:03.750Z,1003.32
2023-03-22T09:03:03.670Z,1003.30
2023-03-22T09:04:03.737Z,1003.38
2023-03-22T09:05:03.683Z,1003.34
2023-03-22T09:06:03.700Z,1003.41
2023-03-22T09:07:03.704Z,1003.51
2023-03-22T09:08:06.661Z,1003.41
2023-03-22T09:09:03.733Z,1003.50
2023-03-22T09:10:03.751Z,1003.39
2023-03-22T09:11:03.754Z,1003.38
2023-03-22T09:12:03.756Z,1003.39
2023-03-22T09:13:03.781Z,1003.38
2023-03-22T09:14:03.806Z,1003.31
2023-03-22T09:16:06.477Z,1003.34
2023-03-22T09:30:02.184Z,1003.20
2023-03-22T09:31:02.264Z,1003.21
2023-03-22T09:32:02.191Z,1003.07
2023-03-22T09:33:02.200Z,1003.09
2023-03-22T09:34:02.203Z,1003.17
2023-03-22T09:35:02.225Z,1003.13
2023-03-22T09:47:04.717Z,1002.93
2023-03-22T09:48:04.738Z,1002.96
2023-03-22T09:49:04.723Z,1002.96
2023-03-22T09:50:04.729Z,1002.97
2023-03-22T09:51:04.741Z,1002.94
2023-03-22T09:52:04.774Z,1002.96
2023-03-22T09:53:04.761Z,1002.89
2023-03-22T09:54:04.775Z,1002.97
2023-03-22T09:55:04.802Z,1002.85
2023-03-22T09:56:04.811Z,1002.92
2023-03-22T09:57:04.820Z,1002.89
2023-03-22T09:58:04.843Z,1002.90
2023-03-22T09:59:04.864Z,1002.91
2023-03-22T10:00:04.869Z,1002.85
2023-03-22T10:01:05.042Z,1002.77
2023-03-22T10:02:05.184Z,1002.86
2023-03-22T10:03:04.930Z,1002.82
2023-03-22T10:04:04.959Z,1002.85
2023-03-22T10:05:04.945Z,1002.72
2023-03-22T10:06:04.958Z,1002.78
2023-03-22T10:07:04.976Z,1002.76
2023-03-22T10:08:04.981Z,1002.69
2023-03-22T10:09:05.004Z,1002.63
2023-03-22T10:10:05.026Z,1002.77
2023-03-22T10:11:05.029Z,1002.65
2023-03-22T10:12:47.614Z,1002.60
2023-03-22T10:13:47.609Z,1002.57
2023-03-22T10:14:47.624Z,1002.67
2023-03-22T10:15:47.707Z,1002.70
2023-03-22T10:16:47.657Z,1002.71
2023-03-22T10:17:47.658Z,1002.61
2023-03-22T10:18:47.709Z,1002.70
2023-03-22T10:20:40.255Z,1002.69
2023-03-22T10:21:40.267Z,1002.68
2023-03-22T10:22:40.285Z,1002.70
2023-03-22T10:23:41.805Z,1002.67
2023-03-22T10:24:40.314Z,1002.78
2023-03-22T10:25:40.593Z,1002.63
2023-03-22T10:26:40.334Z,1002.61
2023-03-22T10:27:40.346Z,1002.56
2023-03-22T10:28:40.375Z,1002.55
2023-03-22T10:29:40.376Z,1002.49
2023-03-22T10:30:40.670Z,1002.45
2023-03-22T10:31:40.448Z,1002.43
2023-03-22T10:32:54.797Z,1002.46
2023-03-22T10:33:40.457Z,1002.44
2023-03-22T10:34:40.487Z,1002.39
2023-03-22T10:35:40.824Z,1002.35
2023-03-22T10:36:40.476Z,1002.26
2023-03-22T10:37:40.490Z,1002.24
2023-03-22T10:38:40.499Z,1002.23
2023-03-22T10:39:40.513Z,1002.28
2023-03-22T10:40:40.558Z,1002.25
2023-03-22T10:41:40.547Z,1002.29
2023-03-22T10:42:40.562Z,1002.27
2023-03-22T10:43:40.677Z,1002.21
2023-03-22T10:44:40.597Z,1002.23
2023-03-22T10:45:40.791Z,1002.28
2023-03-22T10:46:40.652Z,1002.27
2023-03-22T10:47:40.627Z,1002.24
2023-03-22T10:48:40.643Z,1002.27
2023-03-22T10:49:40.664Z,1002.17
2023-03-22T10:50:40.694Z,1002.26
2023-03-22T10:51:40.693Z,1002.20
2023-03-22T10:52:40.715Z,1002.12
2023-03-22T10:53:40.715Z,1002.15
2023-03-22T10:54:40.733Z,1002.19
2023-03-22T10:55:41.007Z,1002.25
2023-03-22T10:56:40.758Z,1002.13
2023-03-22T10:57:40.777Z,1002.14
2023-03-22T10:58:40.790Z,1002.24
2023-03-22T10:59:40.792Z,1002.14
2023-03-22T11:00:42.474Z,1002.21
2023-03-22T11:01:40.952Z,1002.26
2023-03-22T11:02:40.969Z,1002.14
2023-03-22T11:03:40.856Z,1002.22
2023-03-22T11:04:40.866Z,1002.17
2023-03-22T11:05:41.240Z,1002.11
2023-03-22T11:06:40.914Z,1002.10
2023-03-22T11:07:40.908Z,1002.06
2023-03-22T11:08:40.925Z,1002.13
2023-03-22T11:09:40.935Z,1002.10
2023-03-22T11:10:41.048Z,1002.09
2023-03-22T11:11:41.310Z,1002.04
2023-03-22T11:12:44.924Z,1001.97
2023-03-22T11:13:40.994Z,1002.00
2023-03-22T11:14:41.011Z,1001.93
2023-03-22T11:15:41.434Z,1002.01
2023-03-22T11:16:41.068Z,1001.96
2023-03-22T11:17:42.774Z,1001.85
2023-03-22T11:18:41.068Z,1001.85
2023-03-22T11:19:41.084Z,1001.83
2023-03-22T11:20:41.407Z,1001.93
2023-03-22T11:21:41.111Z,1001.92
2023-03-22T11:28:33.673Z,1001.81
2023-03-22T11:29:33.665Z,1001.79
2023-03-22T11:30:33.680Z,1001.80
2023-03-22T11:31:33.743Z,1001.84
2023-03-22T11:32:33.755Z,1001.82
2023-03-22T11:33:33.729Z,1001.77
2023-03-22T11:34:33.734Z,1001.79
2023-03-22T11:35:33.767Z,1001.78
2023-03-22T11:36:33.764Z,1001.79
2023-03-22T11:37:33.783Z,1001.79
2023-03-22T11:38:33.803Z,1001.78
2023-03-22T11:39:33.819Z,1001.85
2023-03-22T11:40:33.837Z,1001.86
2023-03-22T11:41:33.844Z,1001.78
2023-03-22T11:42:33.867Z,1001.71
2023-03-22T11:43:33.890Z,1001.73
2023-03-22T11:44:33.912Z,1001.70
2023-03-22T11:45:33.909Z,1001.71
2023-03-22T11:46:34.007Z,1001.64
2023-03-22T11:47:34.038Z,1001.67
2023-03-22T11:51:44.944Z,1001.62
2023-03-22T11:52:44.947Z,1001.71
2023-03-22T12:00:22.695Z,1001.61
2023-03-22T12:01:22.597Z,1001.66
2023-03-22T12:02:22.729Z,1001.64
2023-03-22T12:03:22.743Z,1001.73
2023-03-22T12:04:22.718Z,1001.70
2023-03-22T12:05:22.803Z,1001.78
2023-03-22T12:06:22.744Z,1001.73
2023-03-22T12:07:22.678Z,1001.68
2023-03-22T12:08:22.700Z,1001.71
2023-03-22T12:09:22.714Z,1001.75
2023-03-22T12:10:22.725Z,1001.70
2023-03-22T12:11:22.741Z,1001.70
2023-03-22T12:12:22.747Z,1001.68
2023-03-22T12:13:22.792Z,1001.57
2023-03-22T12:14:22.784Z,1001.59
2023-03-22T12:15:22.793Z,1001.59
2023-03-22T12:16:24.766Z,1001.54
2023-03-22T12:17:22.889Z,1001.61
2023-03-22T12:18:22.994Z,1001.54
2023-03-22T12:19:22.860Z,1001.41
2023-03-22T12:20:22.878Z,1001.43
2023-03-22T12:21:22.884Z,1001.40
2023-03-22T12:22:22.910Z,1001.47
2023-03-22T12:24:05.468Z,1001.42
2023-03-22T12:25:05.486Z,1001.50
2023-03-22T12:27:03.092Z,1001.49
2023-03-22T12:41:29.037Z,1001.22
2023-03-22T12:42:29.311Z,1001.19
2023-03-22T12:44:11.604Z,1001.32
2023-03-22T12:45:11.610Z,1001.21
2023-03-22T12:46:11.654Z,1001.25
2023-03-22T12:47:11.750Z,1001.28
2023-03-22T12:50:52.594Z,1001.25
2023-03-22T12:51:52.592Z,1001.17
2023-03-22T12:52:53.901Z,1001.17
2023-03-22T12:53:52.610Z,1001.19
2023-03-22T12:54:52.635Z,1001.14
2023-03-22T12:55:52.639Z,1001.22
2023-03-22T12:56:52.681Z,1001.14
2023-03-22T12:57:52.678Z,1001.25
2023-03-22T12:58:52.698Z,1001.20
2023-03-22T12:59:52.696Z,1001.12
2023-03-22T13:00:52.783Z,1001.16
2023-03-22T13:01:52.719Z,1001.20
2023-03-22T13:02:52.829Z,1001.14
2023-03-22T13:03:52.877Z,1001.13
2023-03-22T13:04:52.764Z,1001.24
2023-03-22T13:05:52.778Z,1001.27
2023-03-22T13:06:52.795Z,1001.26
2023-03-22T13:07:52.805Z,1001.18
2023-03-22T13:08:52.826Z,1001.19
2023-03-22T13:09:52.842Z,1001.23
2023-03-22T13:10:52.849Z,1001.17
2023-03-22T13:11:53.310Z,1001.23
2023-03-22T13:12:52.906Z,1001.24
2023-03-22T13:13:52.892Z,1001.30
2023-03-22T13:14:53.083Z,1001.22
2023-03-22T13:15:52.922Z,1001.26
2023-03-22T13:16:53.143Z,1001.30
2023-03-22T13:17:53.019Z,1001.27
2023-03-22T13:18:52.973Z,1001.33
2023-03-22T13:19:52.976Z,1001.25
2023-03-22T13:20:52.986Z,1001.41
2023-03-22T13:21:54.815Z,1001.24
2023-03-22T13:22:53.014Z,1001.27
2023-03-22T13:23:53.036Z,1001.37
2023-03-22T13:24:53.043Z,1001.38
2023-03-22T13:25:53.056Z,1001.34
2023-03-22T13:26:53.084Z,1001.34
2023-03-22T13:27:53.119Z,1001.33
2023-03-22T13:28:53.124Z,1001.28
2023-03-22T13:29:53.117Z,1001.31
2023-03-22T13:30:53.126Z,1001.35
2023-03-22T13:31:53.227Z,1001.34
2023-03-22T13:32:55.783Z,1001.33
2023-03-22T13:33:53.163Z,1001.28
2023-03-22T13:34:53.179Z,1001.31
2023-03-22T13:35:53.210Z,1001.37
2023-03-22T13:36:53.198Z,1001.36
2023-03-22T13:37:53.211Z,1001.38
2023-03-22T13:38:53.233Z,1001.31
2023-03-22T13:39:53.245Z,1001.34
2023-03-22T13:40:53.312Z,1001.23
2023-03-22T13:41:53.265Z,1001.31
2023-03-22T13:42:53.284Z,1001.28
2023-03-22T13:43:53.314Z,1001.26
2023-03-22T13:44:53.354Z,1001.26
2023-03-22T13:45:53.404Z,1001.27
2023-03-22T13:46:53.351Z,1001.28
2023-03-22T13:47:53.417Z,1001.24
2023-03-22T13:48:53.420Z,1001.19
2023-03-22T13:49:53.389Z,1001.19
2023-03-22T13:50:53.404Z,1001.15
2023-03-22T13:51:53.416Z,1001.13
2023-03-22T13:52:53.431Z,1001.21
2023-03-22T13:53:53.440Z,1001.08
2023-03-22T13:54:53.462Z,1001.12
2023-03-22T13:55:53.472Z,1001.13
2023-03-22T13:56:53.490Z,1001.20
2023-03-22T13:57:56.960Z,1001.14
2023-03-22T13:58:53.518Z,1001.08
2023-03-22T14:00:03.117Z,1001.08
2023-03-22T14:00:53.616Z,1001.08
2023-03-22T14:01:53.580Z,1001.03
2023-03-22T14:02:53.747Z,1001.15
2023-03-22T14:03:53.718Z,1000.97
2023-03-22T14:04:53.601Z,1001.05
2023-03-22T14:05:55.660Z,1001.06
2023-03-22T14:06:53.636Z,1001.00
2023-03-22T14:07:53.653Z,1001.12
2023-03-22T14:08:53.658Z,1001.09
2023-03-22T14:09:53.674Z,1001.04
2023-03-22T14:10:53.693Z,1000.99
2023-03-22T14:11:55.779Z,1001.08
2023-03-22T14:12:53.752Z,1001.04
2023-03-22T14:13:53.748Z,1000.96
2023-03-22T14:14:53.756Z,1000.97
2023-03-22T14:15:53.841Z,1001.00
2023-03-22T14:16:53.808Z,1001.00
2023-03-22T14:17:53.849Z,1001.00
2023-03-22T14:18:53.808Z,1000.92
2023-03-22T14:19:53.819Z,1000.92
2023-03-22T14:20:53.829Z,1000.96
2023-03-22T14:46:15.781Z,1001.00
2023-03-22T14:47:15.761Z,1000.99
2023-03-22T14:48:15.778Z,1000.90
2023-03-22T14:49:15.786Z,1000.98
2023-03-22T14:50:15.814Z,1000.94
2023-03-22T14:51:15.811Z,1000.95
2023-03-22T14:52:15.833Z,1000.93
2023-03-22T14:53:15.841Z,1001.01
2023-03-22T14:54:15.897Z,1001.08
2023-03-22T14:55:16.870Z,1001.05
2023-03-22T14:56:15.880Z,1001.03
2023-03-22T14:57:15.926Z,1001.06
2023-03-22T14:58:15.902Z,1001.07
2023-03-22T14:59:15.906Z,1001.02
2023-03-22T15:13:01.696Z,1000.95
2023-03-22T15:14:01.684Z,1000.94
2023-03-22T15:15:01.686Z,1000.97
2023-03-22T15:16:01.730Z,1001.00
2023-03-22T15:17:01.705Z,1000.96
2023-03-22T15:18:01.718Z,1000.99
2023-03-22T15:19:01.731Z,1001.05
2023-03-22T15:20:01.734Z,1001.02
2023-03-22T15:21:01.751Z,1001.01
2023-03-22T15:22:01.761Z,1000.93
2023-03-22T15:23:01.773Z,1000.97
2023-03-22T15:24:01.777Z,1000.95
2023-03-22T15:25:01.785Z,1000.89
2023-03-22T15:26:01.812Z,1000.98
2023-03-22T15:27:01.800Z,1000.92
2023-03-22T15:28:01.818Z,1000.98
2023-03-22T15:29:01.850Z,1000.92
2023-03-22T15:30:01.878Z,1000.97
2023-03-22T15:31:01.852Z,1000.97
2023-03-22T15:32:01.863Z,1000.93
2023-03-22T15:33:01.866Z,1000.94
2023-03-22T15:34:01.881Z,1000.97
2023-03-22T15:35:01.878Z,1000.95
2023-03-22T15:36:01.901Z,1001.02
2023-03-22T15:37:01.902Z,1000.97
2023-03-22T15:38:01.907Z,1000.96
2023-03-22T15:39:01.921Z,1000.99
2023-03-22T15:40:01.934Z,1001.02
2023-03-22T15:41:01.939Z,1001.07
2023-03-22T15:42:01.942Z,1001.01
2023-03-22T15:43:01.953Z,1001.00
2023-03-22T15:44:01.973Z,1001.03
2023-03-22T15:45:01.992Z,1001.06
2023-03-22T15:46:02.041Z,1001.04
2023-03-22T15:47:02.002Z,1001.10
2023-03-22T15:48:01.998Z,1001.06
2023-03-22T15:49:02.008Z,1001.05
2023-03-22T15:50:02.139Z,1001.13
2023-03-22T15:51:02.045Z,1001.13
2023-03-22T15:52:02.041Z,1001.08
2023-03-22T15:53:02.044Z,1001.16
2023-03-22T15:54:02.064Z,1001.13
2023-03-22T15:55:02.070Z,1001.13
2023-03-22T15:56:02.084Z,1001.13
2023-03-22T15:57:02.092Z,1001.10
2023-03-22T15:58:02.106Z,1001.15
2023-03-22T15:59:02.106Z,1001.12
2023-03-22T16:00:02.207Z,1001.15
2023-03-22T16:01:02.155Z,1001.23
2023-03-22T16:02:02.124Z,1001.20
2023-03-22T16:03:02.145Z,1001.15
2023-03-22T16:04:02.153Z,1001.24
2023-03-22T16:05:02.151Z,1001.24
2023-03-22T16:06:02.174Z,1001.26
2023-03-22T16:07:02.171Z,1001.23
2023-03-22T16:08:02.187Z,1001.28
2023-03-22T16:09:03.318Z,1001.25
2023-03-22T16:10:02.204Z,1001.28
2023-03-22T16:11:02.212Z,1001.32
2023-03-22T16:12:02.220Z,1001.32
2023-03-22T16:13:02.237Z,1001.33
2023-03-22T16:14:02.233Z,1001.31
2023-03-22T16:15:02.254Z,1001.34
2023-03-22T16:16:02.258Z,1001.36
2023-03-22T16:17:02.340Z,1001.36
2023-03-22T16:18:02.277Z,1001.32
2023-03-22T16:19:02.284Z,1001.39
2023-03-22T16:20:02.339Z,1001.36
2023-03-22T16:21:02.301Z,1001.35
2023-03-22T16:22:02.311Z,1001.38
2023-03-22T16:23:02.313Z,1001.37
2023-03-22T16:24:02.321Z,1001.35
2023-03-22T16:25:02.333Z,1001.31
2023-03-22T16:26:02.346Z,1001.32
2023-03-22T16:27:02.353Z,1001.30
2023-03-22T16:28:02.355Z,1001.26
2023-03-22T16:29:02.377Z,1001.20
2023-03-22T16:30:02.379Z,1001.21
2023-03-22T16:31:04.545Z,1001.24
2023-03-22T16:32:02.394Z,1001.25
2023-03-22T16:33:02.437Z,1001.31
2023-03-22T16:34:02.413Z,1001.30
2023-03-22T16:35:02.414Z,1001.32
2023-03-22T16:36:02.470Z,1001.31
2023-03-22T16:37:02.437Z,1001.31
2023-03-22T16:50:48.183Z,1001.38
2023-03-22T16:51:48.161Z,1001.36
2023-03-22T16:52:48.169Z,1001.41
2023-03-22T16:53:48.177Z,1001.36
2023-03-22T16:54:48.185Z,1001.38
2023-03-22T16:55:48.199Z,1001.35
2023-03-22T16:56:48.200Z,1001.37
2023-03-22T16:57:48.207Z,1001.34
2023-03-22T16:58:48.221Z,1001.35
2023-03-22T16:59:48.244Z,1001.29
2023-03-22T17:00:48.232Z,1001.39
2023-03-22T17:01:48.283Z,1001.32
2023-03-22T17:02:48.254Z,1001.32
2023-03-22T17:03:48.272Z,1001.33
2023-03-22T17:04:48.302Z,1001.37
2023-03-22T17:10:12.490Z,1001.37
2023-03-22T17:11:12.569Z,1001.34
2023-03-22T17:12:12.487Z,1001.33
2023-03-22T17:13:12.497Z,1001.38
2023-03-22T17:14:12.499Z,1001.39
2023-03-22T17:15:12.514Z,1001.41
2023-03-22T17:16:12.608Z,1001.39
2023-03-22T17:17:12.534Z,1001.41
2023-03-22T17:18:12.541Z,1001.42
2023-03-22T17:19:12.535Z,1001.39
2023-03-22T17:20:12.549Z,1001.42
2023-03-22T17:21:12.559Z,1001.43
2023-03-22T17:22:12.559Z,1001.43
2023-03-22T17:23:12.579Z,1001.49
2023-03-22T17:24:12.577Z,1001.43
2023-03-22T17:25:12.593Z,1001.43
2023-03-22T17:26:12.619Z,1001.41
2023-03-22T17:27:12.605Z,1001.43
2023-03-22T17:28:12.614Z,1001.41
2023-03-22T17:29:12.628Z,1001.41
2023-03-22T17:30:12.629Z,1001.42
2023-03-22T17:31:12.656Z,1001.42
2023-03-22T17:32:18.173Z,1001.42
2023-03-22T17:33:12.805Z,1001.40
2023-03-22T17:34:12.663Z,1001.42
2023-03-22T17:35:12.665Z,1001.42
2023-03-22T17:36:12.745Z,1001.47
2023-03-22T17:37:12.685Z,1001.43
2023-03-22T17:38:14.089Z,1001.45
2023-03-22T17:39:30.967Z,1001.40
2023-03-22T17:40:32.052Z,1001.36
2023-03-22T17:41:12.710Z,1001.36
2023-03-22T17:42:12.750Z,1001.37
2023-03-22T17:43:12.727Z,1001.38
2023-03-22T17:44:12.731Z,1001.37
2023-03-22T17:45:12.746Z,1001.39
2023-03-22T17:46:58.342Z,1001.37
2023-03-22T17:48:12.791Z,1001.41
2023-03-22T17:49:12.776Z,1001.39
2023-03-22T17:50:12.776Z,1001.40
2023-03-22T17:51:12.790Z,1001.41
2023-03-22T17:52:12.797Z,1001.41
2023-03-22T17:53:30.148Z,1001.41
2023-03-22T17:54:50.947Z,1001.44
2023-03-22T17:55:19.657Z,1001.40
2023-03-22T17:56:43.128Z,1001.43
2023-03-22T17:58:34.756Z,1001.45
2023-03-22T17:59:12.843Z,1001.46
2023-03-22T18:00:12.846Z,1001.45
2023-03-22T18:01:12.933Z,1001.43
2023-03-22T18:02:16.269Z,1001.44
2023-03-22T18:03:12.895Z,1001.48
2023-03-22T18:04:12.878Z,1001.45
2023-03-22T18:05:13.219Z,1001.46
2023-03-22T18:06:12.900Z,1001.44
2023-03-22T18:07:12.901Z,1001.48
2023-03-22T18:08:27.270Z,1001.52
2023-03-22T18:09:12.916Z,1001.45
2023-03-22T18:10:12.939Z,1001.56
2023-03-22T18:11:12.929Z,1001.58
2023-03-22T18:12:12.949Z,1001.57
2023-03-22T18:13:12.942Z,1001.59
2023-03-22T18:14:24.868Z,1001.57
2023-03-22T18:15:12.964Z,1001.61
2023-03-22T18:16:13.010Z,1001.56
2023-03-22T18:18:12.987Z,1001.57
2023-03-22T18:19:12.994Z,1001.55
2023-03-22T18:21:20.593Z,1001.54
2023-03-22T18:22:20.595Z,1001.56
2023-03-22T18:23:20.619Z,1001.56
2023-03-22T18:24:20.621Z,1001.55
2023-03-22T18:25:21.209Z,1001.50
2023-03-22T18:26:28.444Z,1001.50
2023-03-22T18:31:29.879Z,1001.45
2023-03-22T18:32:48.649Z,1001.48
2023-03-22T18:33:29.819Z,1001.45
2023-03-22T18:34:29.821Z,1001.45
2023-03-22T18:35:29.822Z,1001.43
2023-03-22T18:36:29.915Z,1001.45
2023-03-22T18:37:29.869Z,1001.41
2023-03-22T18:39:02.984Z,1001.40
2023-03-22T18:40:10.606Z,1001.37
2023-03-22T18:41:03.847Z,1001.38
2023-03-22T18:41:44.891Z,1001.33
2023-03-22T18:42:41.041Z,1001.30
2023-03-22T18:43:29.887Z,1001.36
2023-03-22T18:44:29.896Z,1001.34
2023-03-22T18:45:47.232Z,1001.36
2023-03-22T18:46:29.953Z,1001.37
2023-03-22T18:47:29.942Z,1001.38
2023-03-22T18:48:29.940Z,1001.42
2023-03-22T18:49:29.923Z,1001.37
2023-03-22T18:50:29.926Z,1001.41
2023-03-22T18:51:32.512Z,1001.40
2023-03-22T18:52:41.653Z,1001.43
2023-03-22T18:53:29.948Z,1001.43
2023-03-22T18:54:29.960Z,1001.40
2023-03-22T18:55:36.270Z,1001.43
2023-03-22T18:56:32.245Z,1001.40
2023-03-22T18:57:32.438Z,1001.45
2023-03-22T18:58:29.997Z,1001.44
2023-03-22T18:59:29.990Z,1001.42
2023-03-22T19:00:30.005Z,1001.44
2023-03-22T19:01:30.319Z,1001.46
2023-03-22T19:02:39.848Z,1001.44
2023-03-22T19:03:30.049Z,1001.46
2023-03-22T19:04:30.053Z,1001.46
2023-03-22T19:05:30.053Z,1001.50
2023-03-22T19:06:30.048Z,1001.50
2023-03-22T19:07:48.056Z,1001.50
2023-03-22T19:08:30.358Z,1001.47
2023-03-22T19:09:30.069Z,1001.54
2023-03-22T19:10:30.075Z,1001.54
2023-03-22T19:11:30.076Z,1001.55
2023-03-22T19:12:30.094Z,1001.55
2023-03-22T19:13:30.098Z,1001.53
2023-03-22T19:15:11.648Z,1001.55
2023-03-22T19:15:44.407Z,1001.53
2023-03-22T19:16:30.113Z,1001.55
2023-03-22T19:17:30.119Z,1001.54
2023-03-22T19:18:30.133Z,1001.54
2023-03-22T19:19:30.168Z,1001.58
2023-03-22T19:20:39.831Z,1001.56
2023-03-22T19:21:32.626Z,1001.57
2023-03-22T19:22:30.162Z,1001.58
2023-03-22T19:23:30.181Z,1001.55
2023-03-22T19:24:30.179Z,1001.60
2023-03-22T19:25:30.176Z,1001.59
2023-03-22T19:26:30.542Z,1001.58
2023-03-22T19:27:30.197Z,1001.56
2023-03-22T19:28:30.196Z,1001.58
2023-03-22T19:29:30.205Z,1001.57
2023-03-22T19:30:30.232Z,1001.60
2023-03-22T19:35:39.726Z,1001.57
2023-03-22T19:36:39.403Z,1001.56
2023-03-22T19:37:39.402Z,1001.56
2023-03-22T19:38:39.402Z,1001.51
2023-03-22T19:39:39.424Z,1001.56
2023-03-22T19:41:28.230Z,1001.55
2023-03-22T19:41:54.755Z,1001.51
2023-03-22T19:42:39.430Z,1001.53
2023-03-22T19:43:39.435Z,1001.47
2023-03-22T19:44:39.446Z,1001.42
2023-03-22T19:45:39.562Z,1001.45
2023-03-22T19:46:40.526Z,1001.41
2023-03-22T19:48:39.545Z,1001.37
2023-03-22T19:49:39.487Z,1001.34
2023-03-22T19:50:39.486Z,1001.30
2023-03-22T19:51:39.514Z,1001.32
2023-03-22T19:52:39.510Z,1001.28
2023-03-22T19:54:17.160Z,1001.27
2023-03-22T19:54:45.212Z,1001.31
2023-03-22T19:55:39.734Z,1001.33
2023-03-22T19:56:39.530Z,1001.32
2023-03-22T19:57:39.551Z,1001.27
2023-03-22T19:58:39.551Z,1001.29
2023-03-22T19:59:39.551Z,1001.28
2023-03-22T20:01:39.566Z,1001.30
2023-03-22T20:02:39.579Z,1001.24
2023-03-22T20:03:39.578Z,1001.24
2023-03-22T20:04:39.586Z,1001.24
2023-03-22T20:05:47.667Z,1001.25
2023-03-22T20:06:39.608Z,1001.24
2023-03-22T20:07:39.630Z,1001.24
2023-03-22T20:08:39.638Z,1001.25
2023-03-22T20:09:39.633Z,1001.28
2023-03-22T20:10:39.644Z,1001.24
2023-03-22T20:11:43.531Z,1001.23
2023-03-22T20:12:39.651Z,1001.26
2023-03-22T20:13:39.673Z,1001.24
2023-03-22T20:14:39.657Z,1001.23
2023-03-22T20:15:39.899Z,1001.18
2023-03-22T20:16:39.693Z,1001.23
2023-03-22T20:17:39.701Z,1001.24
2023-03-22T20:18:39.699Z,1001.26
2023-03-22T20:20:32.261Z,1001.23
2023-03-22T20:21:32.260Z,1001.19
2023-03-22T20:22:32.272Z,1001.21
2023-03-22T20:23:32.305Z,1001.24
2023-03-22T20:24:32.289Z,1001.23
2023-03-22T20:25:32.289Z,1001.23
2023-03-22T20:26:32.304Z,1001.19
2023-03-22T20:27:32.311Z,1001.17
2023-03-22T20:28:32.318Z,1001.12
2023-03-22T20:29:32.315Z,1001.12
2023-03-22T20:30:32.332Z,1001.13
2023-03-22T20:31:32.333Z,1001.13
2023-03-22T20:32:32.338Z,1001.17
2023-03-22T20:33:32.350Z,1001.14
2023-03-22T20:34:32.360Z,1001.20
2023-03-22T20:35:32.360Z,1001.22
2023-03-22T20:36:32.405Z,1001.22
2023-03-22T20:37:32.381Z,1001.24
2023-03-22T20:38:32.387Z,1001.20
2023-03-22T20:39:32.417Z,1001.21
2023-03-22T20:40:32.392Z,1001.22
2023-03-22T20:41:33.189Z,1001.21
2023-03-22T20:42:32.404Z,1001.15
2023-03-22T20:43:32.410Z,1001.16
2023-03-22T20:44:32.417Z,1001.19
2023-03-22T20:45:32.425Z,1001.17
2023-03-22T20:46:32.434Z,1001.16
2023-03-22T20:47:33.405Z,1001.17
2023-03-22T20:48:32.451Z,1001.16
2023-03-22T20:49:32.449Z,1001.15
2023-03-22T20:50:32.464Z,1001.14
2023-03-22T20:51:32.461Z,1001.13
2023-03-22T20:52:32.478Z,1001.13
2023-03-22T20:53:32.482Z,1001.10
2023-03-22T20:54:32.484Z,1001.16
2023-03-22T20:55:32.517Z,1001.16
2023-03-22T20:56:32.494Z,1001.14
2023-03-22T20:57:32.506Z,1001.12
2023-03-22T20:58:32.520Z,1001.13
2023-03-22T20:59:32.516Z,1001.21
2023-03-22T21:00:32.536Z,1001.16
2023-03-22T21:01:32.529Z,1001.14
2023-03-22T21:02:32.543Z,1001.15
2023-03-22T21:03:32.551Z,1001.09
2023-03-22T21:04:32.553Z,1001.09
2023-03-22T21:05:32.562Z,1001.08
2023-03-22T21:06:32.566Z,1001.08
2023-03-22T21:07:32.569Z,1001.01
2023-03-22T21:08:32.589Z,1000.98
2023-03-22T21:09:32.588Z,1000.97
2023-03-22T21:10:32.591Z,1000.95
2023-03-22T21:11:32.619Z,1000.92
2023-03-22T21:12:32.604Z,1000.89
2023-03-22T21:13:32.624Z,1000.92
2023-03-22T21:14:32.619Z,1000.93
2023-03-22T21:15:32.638Z,1000.97
2023-03-22T21:16:32.640Z,1000.99
2023-03-22T21:17:32.640Z,1000.96
2023-03-22T21:18:32.647Z,1000.96
2023-03-22T21:19:32.654Z,1000.90
2023-03-22T21:20:32.980Z,1000.85
2023-03-22T21:21:33.519Z,1000.85
2023-03-22T21:22:32.685Z,1000.85
2023-03-22T21:23:32.691Z,1000.85
2023-03-22T21:24:32.688Z,1000.88
2023-03-22T21:25:32.703Z,1000.83
2023-03-22T21:26:32.708Z,1000.80
2023-03-22T21:27:32.729Z,1000.81
2023-03-22T21:28:32.717Z,1000.78
2023-03-22T21:29:32.725Z,1000.77
2023-03-22T21:30:32.729Z,1000.73
2023-03-22T21:31:32.736Z,1000.73
2023-03-22T21:32:32.744Z,1000.68
2023-03-22T21:33:32.750Z,1000.65
2023-03-22T21:34:32.758Z,1000.68
2023-03-22T21:35:32.764Z,1000.64
2023-03-22T21:36:32.793Z,1000.62
2023-03-22T21:37:32.779Z,1000.59
2023-03-22T21:38:32.792Z,1000.61
2023-03-22T21:39:32.790Z,1000.57
2023-03-22T21:40:32.800Z,1000.58
2023-03-22T21:41:32.812Z,1000.55
2023-03-22T21:42:33.121Z,1000.52
2023-03-22T21:43:32.851Z,1000.50
2023-03-22T21:44:32.835Z,1000.54
2023-03-22T21:45:32.840Z,1000.53
2023-03-22T21:46:32.840Z,1000.55
2023-03-22T21:47:32.853Z,1000.55
2023-03-22T21:48:32.853Z,1000.56
2023-03-22T21:49:32.865Z,1000.55
2023-03-22T21:50:32.873Z,1000.55
2023-03-22T21:51:32.868Z,1000.54
2023-03-22T21:52:32.881Z,1000.52
2023-03-22T21:53:32.890Z,1000.57
2023-03-22T21:54:32.901Z,1000.58
2023-03-22T21:55:32.909Z,1000.56
2023-03-22T21:56:32.910Z,1000.54
2023-03-22T21:57:32.917Z,1000.55
2023-03-22T21:58:32.916Z,1000.57
2023-03-22T21:59:32.953Z,1000.60
2023-03-22T22:00:32.930Z,1000.63
2023-03-22T22:01:32.947Z,1000.64
2023-03-22T22:02:32.952Z,1000.59
2023-03-22T22:03:32.965Z,1000.59
2023-03-22T22:04:32.959Z,1000.54
2023-03-22T22:05:32.962Z,1000.50
2023-03-22T22:06:32.969Z,1000.53
2023-03-22T22:07:32.977Z,1000.46
2023-03-22T22:08:32.993Z,1000.51
2023-03-22T22:09:33.002Z,1000.48
2023-03-22T22:10:32.996Z,1000.48
2023-03-22T22:11:33.003Z,1000.45
2023-03-22T22:12:33.011Z,1000.48
2023-03-22T22:13:33.023Z,1000.51
2023-03-22T22:14:33.026Z,1000.57
2023-03-22T22:15:33.062Z,1000.54
2023-03-22T22:16:33.037Z,1000.54
2023-03-22T22:21:42.211Z,1000.50
2023-03-22T22:22:42.210Z,1000.46
2023-03-22T22:23:42.225Z,1000.44
2023-03-22T22:24:42.230Z,1000.43
2023-03-22T22:25:42.489Z,1000.47
2023-03-22T22:26:42.238Z,1000.42
2023-03-22T22:27:42.250Z,1000.39
2023-03-22T22:28:42.248Z,1000.40
2023-03-22T22:29:42.263Z,1000.38
2023-03-22T22:30:42.292Z,1000.37
2023-03-22T22:31:42.269Z,1000.38
2023-03-22T22:32:42.282Z,1000.35
2023-03-22T22:33:42.282Z,1000.38
2023-03-22T22:34:42.298Z,1000.38
2023-03-22T22:35:42.494Z,1000.35
2023-03-22T22:36:42.307Z,1000.34
2023-03-22T22:37:42.304Z,1000.32
2023-03-22T22:38:42.321Z,1000.30
2023-03-22T22:39:42.320Z,1000.34
2023-03-22T22:40:42.337Z,1000.34
2023-03-22T22:41:42.339Z,1000.40
2023-03-22T22:42:42.347Z,1000.41
2023-03-22T22:43:42.347Z,1000.38
2023-03-22T22:44:42.362Z,1000.36
2023-03-22T22:45:42.644Z,1000.36
2023-03-22T22:46:42.388Z,1000.37
2023-03-22T22:47:42.383Z,1000.36
2023-03-22T22:48:42.387Z,1000.37
2023-03-22T22:49:42.385Z,1000.40
2023-03-22T22:50:42.401Z,1000.44
2023-03-22T22:51:42.397Z,1000.43
2023-03-22T22:52:42.404Z,1000.44
2023-03-22T22:53:42.411Z,1000.45
2023-03-22T22:54:42.418Z,1000.47
2023-03-22T22:55:42.690Z,1000.51
2023-03-22T22:56:42.429Z,1000.49
2023-03-22T22:57:42.451Z,1000.45
2023-03-22T22:58:42.452Z,1000.46
2023-03-22T22:59:42.449Z,1000.44
2023-03-22T23:00:42.460Z,1000.42
2023-03-22T23:01:42.460Z,1000.43